Time;durP1;ratioP1;P1;durP2;ratioP2;P2;SDS_P1;SDS_P2;PMS_P1;PMS_P2;Temp;Humidity;BMP_temperature;BMP_pressure;BME280_temperature;BME280_humidity;BME280_pressure;Samples;Min_cycle;Max_cycle;Signal;HPM_P1;HPM_P2
2023/01/14 00:01:24;;;;;;;20.33;5.03;;;6.60;99.90;;;;;;4973406;28;20527;-73
2023/01/14 00:03:52;;;;;;;18.77;3.97;;;6.60;99.90;;;;;;4957147;28;20051;-72
2023/01/14 00:06:21;;;;;;;21.38;5.13;;;6.60;99.90;;;;;;4974824;28;20050;-72
2023/01/14 00:08:53;;;;;;;23.25;5.25;;;6.70;99.90;;;;;;4972721;28;20077;-72
2023/01/14 00:11:45;;;;;;;16.75;4.30;;;6.60;99.90;;;;;;4974391;28;20101;-72
2023/01/14 00:14:08;;;;;;;18.58;4.55;;;6.70;99.90;;;;;;4974673;28;20102;-71
2023/01/14 00:16:35;;;;;;;19.95;4.60;;;6.70;99.90;;;;;;4958118;28;20043;-73
2023/01/14 00:19:02;;;;;;;21.17;5.15;;;6.70;99.90;;;;;;4957375;28;20047;-73
2023/01/14 00:21:29;;;;;;;24.27;5.32;;;6.90;99.90;;;;;;4975470;28;20495;-73
2023/01/14 00:23:56;;;;;;;21.00;4.32;;;6.70;99.90;;;;;;4955413;28;20051;-74
2023/01/14 00:26:24;;;;;;;19.98;4.75;;;6.70;99.90;;;;;;4974906;28;20406;-73
2023/01/14 00:28:52;;;;;;;21.80;5.32;;;6.70;99.90;;;;;;4957626;28;20046;-73
2023/01/14 00:31:22;;;;;;;13.05;3.72;;;6.60;99.90;;;;;;4956987;28;20057;-72
2023/01/14 00:33:49;;;;;;;14.60;4.93;;;6.50;99.90;;;;;;4957043;28;20105;-73
2023/01/14 00:36:18;;;;;;;11.40;3.63;;;6.50;99.90;;;;;;4974393;28;20781;-73
2023/01/14 00:38:45;;;;;;;18.65;4.63;;;6.40;99.90;;;;;;4974197;28;20106;-73
2023/01/14 00:41:14;;;;;;;15.05;3.88;;;6.40;99.90;;;;;;4957486;28;20491;-72
2023/01/14 00:43:43;;;;;;;25.73;5.03;;;6.30;99.90;;;;;;4974441;28;20054;-73
2023/01/14 00:46:11;;;;;;;19.75;3.90;;;6.30;99.90;;;;;;4973705;28;20051;-73
2023/01/14 00:48:40;;;;;;;16.65;4.47;;;6.30;99.90;;;;;;4956821;28;20054;-72
2023/01/14 00:51:08;;;;;;;12.10;4.28;;;6.20;99.90;;;;;;4957296;28;20570;-73
2023/01/14 00:53:35;;;;;;;18.60;4.05;;;6.30;99.90;;;;;;4956381;28;20534;-72
2023/01/14 00:56:02;;;;;;;19.70;4.40;;;6.30;99.90;;;;;;4956901;28;20051;-73
2023/01/14 00:58:29;;;;;;;20.33;3.25;;;6.40;99.90;;;;;;4974150;28;20062;-74
2023/01/14 01:00:56;;;;;;;15.63;4.13;;;6.40;99.90;;;;;;4956534;28;20380;-73
2023/01/14 01:03:23;;;;;;;17.73;4.15;;;6.50;99.90;;;;;;4957069;28;20133;-73
2023/01/14 01:05:52;;;;;;;13.60;3.28;;;6.50;99.90;;;;;;4957109;28;20450;-69
2023/01/14 01:08:21;;;;;;;12.20;4.00;;;6.60;99.90;;;;;;4973376;28;20110;-69
2023/01/14 01:10:50;;;;;;;13.30;4.07;;;6.60;99.90;;;;;;4974311;28;20061;-69
2023/01/14 01:13:18;;;;;;;17.05;4.05;;;6.60;99.90;;;;;;4973425;28;20059;-68
2023/01/14 01:15:45;;;;;;;12.35;3.75;;;6.60;99.90;;;;;;4956867;28;20046;-69
2023/01/14 01:18:13;;;;;;;17.05;4.93;;;6.70;99.90;;;;;;4956673;28;20487;-69
2023/01/14 01:20:40;;;;;;;15.85;4.40;;;6.70;99.90;;;;;;4973458;28;20054;-69
2023/01/14 01:23:09;;;;;;;10.02;3.65;;;6.70;99.90;;;;;;4970361;28;20447;-68
2023/01/14 01:25:37;;;;;;;16.73;4.25;;;6.70;99.90;;;;;;4956456;28;20062;-69
2023/01/14 01:28:05;;;;;;;16.13;4.53;;;6.70;99.90;;;;;;4972767;28;20047;-69
2023/01/14 01:30:33;;;;;;;18.90;4.57;;;6.80;99.90;;;;;;4956047;28;20106;-68
2023/01/14 01:33:00;;;;;;;18.02;4.90;;;6.70;99.90;;;;;;4956180;28;20050;-68
2023/01/14 01:35:28;;;;;;;18.55;3.60;;;6.70;99.90;;;;;;4972474;28;20049;-69
2023/01/14 01:37:55;;;;;;;14.05;3.83;;;6.80;99.90;;;;;;4973007;28;20098;-68
2023/01/14 01:40:23;;;;;;;13.80;4.13;;;6.80;99.90;;;;;;4973132;28;20051;-68
2023/01/14 01:42:56;;;;;;;21.60;3.55;;;6.80;99.90;;;;;;4955458;28;20198;-69
2023/01/14 01:45:38;;;;;;;14.95;4.68;;;6.80;99.90;;;;;;4972689;28;20046;-68
2023/01/14 01:48:08;;;;;;;22.13;4.35;;;6.90;99.90;;;;;;4971762;28;20047;-69
2023/01/14 01:50:36;;;;;;;18.00;4.32;;;6.80;99.90;;;;;;4967097;28;20114;-69
2023/01/14 01:53:04;;;;;;;19.95;4.18;;;6.80;99.90;;;;;;4970494;28;20058;-68
2023/01/14 01:55:37;;;;;;;13.13;3.85;;;6.80;99.90;;;;;;4969573;28;20102;-70
2023/01/14 01:58:04;;;;;;;14.55;3.92;;;6.80;99.90;;;;;;4967957;28;20050;-69
2023/01/14 02:00:32;;;;;;;18.38;3.95;;;6.70;99.90;;;;;;4972788;28;20451;-68
2023/01/14 02:03:01;;;;;;;13.63;3.70;;;6.50;99.90;;;;;;4971686;28;20098;-68
2023/01/14 02:05:28;;;;;;;11.47;3.57;;;6.50;99.90;;;;;;4953018;28;20114;-69
2023/01/14 02:07:57;;;;;;;15.85;4.32;;;6.50;99.90;;;;;;4955716;28;20053;-72
2023/01/14 02:10:42;;;;;;;20.35;3.55;;;6.40;99.90;;;;;;4972627;28;20106;-73
2023/01/14 02:13:26;;;;;;;19.55;4.30;;;6.40;99.90;;;;;;4955450;28;20470;-74
2023/01/14 02:16:06;;;;;;;15.13;3.35;;;6.40;99.90;;;;;;4972804;28;20055;-73
2023/01/14 02:18:45;;;;;;;14.07;3.85;;;6.40;99.90;;;;;;4972685;28;20039;-73
2023/01/14 02:21:18;;;;;;;15.30;4.05;;;6.40;99.90;;;;;;4956352;28;20361;-74
2023/01/14 02:24:34;;;;;;;14.88;4.22;;;6.40;99.90;;;;;;4949083;28;20059;-74
2023/01/14 02:27:33;;;;;;;18.65;3.92;;;6.30;99.90;;;;;;4953854;29;20511;-73
2023/01/14 02:30:15;;;;;;;19.70;4.75;;;6.30;99.90;;;;;;4936627;29;20471;-72
2023/01/14 02:32:46;;;;;;;27.75;4.72;;;6.30;99.90;;;;;;4952688;29;20452;-74
2023/01/14 02:35:26;;;;;;;24.13;3.90;;;6.30;99.90;;;;;;4953982;29;20181;-73
2023/01/14 02:38:01;;;;;;;16.98;4.78;;;6.20;99.90;;;;;;4937077;29;20491;-73
2023/01/14 02:40:32;;;;;;;20.15;4.43;;;6.10;99.90;;;;;;4953989;29;20047;-73
2023/01/14 02:45:56;;;;;;;19.58;4.65;;;6.10;99.90;;;;;;4953724;29;20049;-72
2023/01/14 02:48:25;;;;;;;26.40;5.57;;;6.00;99.90;;;;;;4952183;29;20405;-73
2023/01/14 02:50:52;;;;;;;16.95;3.92;;;6.00;99.90;;;;;;4937101;29;20047;-74
2023/01/14 02:53:21;;;;;;;26.38;5.47;;;5.90;99.90;;;;;;4953208;29;20432;-73
2023/01/14 02:55:49;;;;;;;20.02;4.38;;;5.90;99.90;;;;;;4936708;29;20564;-69
2023/01/14 02:58:53;;;;;;;24.65;4.70;;;5.90;99.90;;;;;;4936054;29;20043;-68
2023/01/14 03:01:33;;;;;;;15.20;4.05;;;5.90;99.90;;;;;;4952211;29;20051;-69
2023/01/14 03:04:28;;;;;;;14.95;4.05;;;5.90;99.90;;;;;;4952851;29;20047;-68
2023/01/14 03:07:05;;;;;;;16.17;4.22;;;5.90;99.90;;;;;;4935580;29;20099;-68
2023/01/14 03:09:40;;;;;;;11.68;4.10;;;5.90;99.90;;;;;;4950691;29;20047;-68
2023/01/14 03:12:15;;;;;;;20.75;4.05;;;5.90;99.90;;;;;;4954052;28;20496;-69
2023/01/14 03:14:46;;;;;;;18.00;4.15;;;5.90;99.90;;;;;;4938422;29;20101;-69
2023/01/14 03:17:21;;;;;;;11.48;3.78;;;5.80;99.90;;;;;;4938321;29;20050;-68
2023/01/14 03:19:55;;;;;;;20.25;3.50;;;5.80;99.90;;;;;;4938399;29;20059;-68
2023/01/14 03:22:22;;;;;;;14.55;3.83;;;5.80;99.90;;;;;;4955876;29;20556;-68
2023/01/14 03:24:53;;;;;;;16.95;4.18;;;5.80;99.90;;;;;;4953058;28;20105;-68
2023/01/14 03:27:23;;;;;;;18.27;4.10;;;5.80;99.90;;;;;;4974571;28;20066;-68
2023/01/14 03:29:53;;;;;;;23.80;3.85;;;5.80;99.90;;;;;;4958491;28;20130;-68
2023/01/14 03:32:25;;;;;;;13.38;4.03;;;5.80;99.90;;;;;;4968306;28;20513;-68
2023/01/14 03:34:57;;;;;;;25.67;5.25;;;5.70;99.90;;;;;;4953924;28;20106;-69
2023/01/14 03:37:28;;;;;;;16.27;4.30;;;5.70;99.90;;;;;;4939995;28;20098;-68
2023/01/14 03:39:55;;;;;;;;;;;5.60;99.90;;;;;;4940237;28;20148;-68
2023/01/14 03:42:27;;;;;;;13.68;3.42;;;5.60;99.90;;;;;;4939558;28;19973;-69
2023/01/14 03:45:02;;;;;;;17.75;3.60;;;5.60;99.90;;;;;;4954435;28;20122;-68
2023/01/14 03:47:34;;;;;;;23.00;4.95;;;5.60;99.90;;;;;;4954668;28;20433;-68
2023/01/14 03:50:03;;;;;;;16.40;3.80;;;5.50;99.90;;;;;;4956354;28;20051;-68
2023/01/14 03:52:53;;;;;;;15.02;3.40;;;5.50;99.90;;;;;;4939884;28;20134;-69
2023/01/14 03:55:29;;;;;;;16.92;3.67;;;5.40;99.90;;;;;;4955759;28;20043;-68
2023/01/14 03:58:03;;;;;;;12.07;3.78;;;5.40;99.90;;;;;;4956286;28;20412;-68
2023/01/14 04:00:34;;;;;;;16.05;3.78;;;5.40;99.90;;;;;;4939639;28;20054;-68
2023/01/14 04:03:06;;;;;;;21.15;3.85;;;5.40;99.90;;;;;;4954398;28;20416;-68
2023/01/14 04:05:33;;;;;;;20.52;4.38;;;5.30;99.90;;;;;;4956008;28;20107;-67
2023/01/14 04:08:01;;;;;;;16.65;3.72;;;5.30;99.90;;;;;;4938662;28;20043;-68
2023/01/14 04:10:28;;;;;;;17.17;4.03;;;5.30;99.90;;;;;;4939022;28;20051;-68
2023/01/14 04:15:39;;;;;;;23.15;4.13;;;5.20;99.90;;;;;;4957326;28;20403;-67
2023/01/14 04:18:07;;;;;;;18.80;4.45;;;5.20;99.90;;;;;;4974096;28;20392;-69
2023/01/14 04:20:34;;;;;;;21.35;4.20;;;5.20;99.90;;;;;;4957438;28;20124;-70
2023/01/14 04:23:01;;;;;;;13.25;3.53;;;5.10;99.90;;;;;;4955891;28;20046;-69
2023/01/14 04:25:28;;;;;;;11.23;3.22;;;5.10;99.90;;;;;;4956621;28;20046;-68
2023/01/14 04:27:55;;;;;;;17.23;4.43;;;5.10;99.90;;;;;;4957472;28;20049;-68
2023/01/14 04:30:22;;;;;;;16.75;4.35;;;5.10;99.90;;;;;;4946827;28;20149;-69
2023/01/14 04:32:48;;;;;;;15.93;4.03;;;5.10;99.90;;;;;;4954739;28;20567;-69
2023/01/14 04:35:17;;;;;;;19.67;4.55;;;5.10;99.90;;;;;;4939008;28;20491;-68
2023/01/14 04:37:45;;;;;;;23.10;5.35;;;5.10;99.90;;;;;;4955196;28;20126;-69
2023/01/14 04:40:13;;;;;;;13.32;4.55;;;5.10;99.90;;;;;;4938995;28;20059;-68
2023/01/14 04:42:39;;;;;;;18.15;3.80;;;5.20;99.90;;;;;;4955663;28;20114;-68
2023/01/14 04:45:07;;;;;;;19.08;5.30;;;5.20;99.90;;;;;;4937594;28;20047;-68
2023/01/14 04:47:34;;;;;;;13.45;4.03;;;5.30;99.90;;;;;;4950972;28;20127;-68
2023/01/14 04:50:30;;;;;;;15.10;4.15;;;5.30;99.90;;;;;;4973722;28;20063;-68
2023/01/14 04:52:50;;;;;;;17.33;3.85;;;5.30;99.90;;;;;;4955544;28;20498;-68
2023/01/14 04:55:17;;;;;;;19.05;3.50;;;5.30;99.90;;;;;;4973535;28;20090;-69
2023/01/14 04:57:44;;;;;;;17.50;3.83;;;5.20;99.90;;;;;;4956764;28;20118;-68
2023/01/14 05:00:12;;;;;;;19.70;3.85;;;5.20;99.90;;;;;;4973134;28;20373;-67
2023/01/14 05:02:39;;;;;;;15.85;4.20;;;5.20;99.90;;;;;;4973489;28;20125;-69
2023/01/14 05:05:06;;;;;;;14.32;3.08;;;5.10;99.90;;;;;;4973451;28;20114;-68
2023/01/14 05:07:33;;;;;;;14.07;3.40;;;5.10;99.90;;;;;;4942565;28;20047;-68
2023/01/14 05:10:01;;;;;;;17.20;3.88;;;5.10;99.90;;;;;;4955966;28;20127;-69
2023/01/14 05:12:28;;;;;;;16.50;3.70;;;5.10;99.90;;;;;;4956059;28;20416;-68
2023/01/14 05:14:55;;;;;;;15.07;3.75;;;5.10;99.90;;;;;;4973112;28;20098;-68
2023/01/14 05:17:22;;;;;;;16.35;3.85;;;5.10;99.90;;;;;;4956074;28;20053;-68
2023/01/14 05:19:49;;;;;;;14.60;3.67;;;5.10;99.90;;;;;;4955232;28;20106;-68
2023/01/14 05:22:16;;;;;;;15.90;3.65;;;5.20;99.90;;;;;;4972376;28;20060;-69
2023/01/14 05:24:43;;;;;;;16.58;3.63;;;5.20;99.90;;;;;;4972953;28;20055;-68
2023/01/14 05:27:11;;;;;;;16.52;3.45;;;5.20;99.90;;;;;;4971768;28;20050;-68
2023/01/14 05:29:39;;;;;;;11.32;2.90;;;5.20;99.90;;;;;;4955985;28;20051;-68
2023/01/14 05:32:06;;;;;;;13.45;4.60;;;5.20;99.90;;;;;;4972616;28;20495;-67
2023/01/14 05:34:33;;;;;;;17.95;4.80;;;5.20;99.90;;;;;;4943158;28;20054;-68
2023/01/14 05:37:00;;;;;;;14.25;3.80;;;5.30;99.90;;;;;;4972355;28;20393;-68
2023/01/14 05:39:26;;;;;;;14.60;3.80;;;5.30;99.90;;;;;;4955405;28;20065;-68
2023/01/14 05:47:23;;;;;;;9.75;4.07;;;5.30;99.90;;;;;;4955178;28;20146;-68
2023/01/14 05:49:50;;;;;;;14.75;3.75;;;5.40;99.90;;;;;;4972022;28;20078;-69
2023/01/14 05:52:17;;;;;;;18.05;5.97;;;5.30;99.90;;;;;;4955190;28;20061;-68
2023/01/14 05:54:44;;;;;;;15.32;3.67;;;5.30;99.90;;;;;;4955160;28;20058;-68
2023/01/14 05:57:14;;;;;;;19.00;4.53;;;5.30;99.90;;;;;;4971861;28;20109;-68
2023/01/14 05:59:43;;;;;;;17.83;4.22;;;5.30;99.90;;;;;;4972468;28;20047;-69
2023/01/14 06:07:39;;;;;;;14.55;3.65;;;5.20;99.90;;;;;;4972198;28;20047;-67
2023/01/14 06:10:07;;;;;;;18.52;4.63;;;5.30;99.90;;;;;;4971527;28;20047;-69
2023/01/14 06:12:57;;;;;;;22.08;4.60;;;5.30;99.90;;;;;;4971206;28;20051;-68
2023/01/14 06:15:29;;;;;;;23.73;4.25;;;5.30;99.90;;;;;;4971709;28;20047;-68
2023/01/14 06:17:58;;;;;;;21.90;4.32;;;5.30;99.90;;;;;;4967160;28;20141;-67
2023/01/14 06:20:25;;;;;;;16.80;4.15;;;5.30;99.90;;;;;;4933028;28;20066;-68
2023/01/14 06:22:55;;;;;;;20.95;5.10;;;5.40;99.90;;;;;;4934808;28;20070;-68
2023/01/14 06:25:22;;;;;;;12.15;4.68;;;5.30;99.90;;;;;;4969655;28;20086;-68
2023/01/14 06:27:49;;;;;;;23.17;4.32;;;5.30;99.90;;;;;;4971322;28;20526;-68
2023/01/14 06:30:16;;;;;;;12.05;4.38;;;5.40;99.90;;;;;;4965414;28;20108;-69
2023/01/14 06:32:45;;;;;;;17.15;4.25;;;5.40;99.90;;;;;;4972866;28;20117;-68
2023/01/14 06:35:12;;;;;;;24.35;5.00;;;5.40;99.90;;;;;;4986585;28;20042;-68
2023/01/14 06:37:38;;;;;;;18.05;4.88;;;5.40;99.90;;;;;;4973047;28;20054;-69
2023/01/14 06:40:06;;;;;;;17.02;4.18;;;5.40;99.90;;;;;;4984535;28;20046;-68
2023/01/14 06:42:33;;;;;;;25.65;5.60;;;5.40;99.90;;;;;;4972743;28;20146;-68
2023/01/14 06:45:00;;;;;;;16.48;4.55;;;5.40;99.90;;;;;;4971572;28;20387;-68
2023/01/14 06:47:27;;;;;;;16.63;4.95;;;5.40;99.90;;;;;;4989597;28;20459;-68
2023/01/14 06:49:55;;;;;;;21.17;6.30;;;5.40;99.90;;;;;;4976590;28;20045;-68
2023/01/14 06:52:22;;;;;;;14.55;4.90;;;5.40;99.90;;;;;;4989802;28;20507;-68
2023/01/14 06:54:51;;;;;;;17.13;5.68;;;5.40;99.90;;;;;;4991984;28;20472;-69
2023/01/14 06:57:18;;;;;;;22.08;4.85;;;5.40;99.90;;;;;;4991218;28;20065;-67
2023/01/14 06:59:45;;;;;;;23.33;7.05;;;5.40;99.90;;;;;;4992316;28;20049;-68
2023/01/14 07:02:13;;;;;;;18.38;6.05;;;5.40;99.90;;;;;;4976809;28;20525;-68
2023/01/14 07:04:40;;;;;;;20.50;5.65;;;5.30;99.90;;;;;;4994167;28;20085;-68
2023/01/14 07:07:08;;;;;;;20.13;4.78;;;5.40;99.90;;;;;;4991475;28;20049;-70
2023/01/14 07:09:35;;;;;;;20.38;6.20;;;5.40;99.90;;;;;;4990977;28;20057;-69
2023/01/14 07:12:02;;;;;;;21.60;5.72;;;5.40;99.90;;;;;;4973852;28;20061;-69
2023/01/14 07:14:29;;;;;;;19.48;6.63;;;5.40;99.90;;;;;;4989516;28;20101;-69
2023/01/14 07:16:56;;;;;;;20.58;6.10;;;5.40;99.90;;;;;;4990519;28;20447;-69
2023/01/14 07:19:23;;;;;;;19.35;6.07;;;5.40;99.90;;;;;;4990211;28;20686;-69
2023/01/14 07:21:50;;;;;;;27.33;6.20;;;5.40;99.90;;;;;;4990363;28;20039;-68
2023/01/14 07:24:18;;;;;;;24.92;6.80;;;5.40;99.90;;;;;;4986435;28;20602;-68
2023/01/14 07:26:45;;;;;;;19.15;6.10;;;5.50;99.90;;;;;;4974508;28;20050;-68
2023/01/14 07:29:12;;;;;;;16.88;7.05;;;5.50;99.90;;;;;;4990536;28;20435;-68
2023/01/14 07:31:39;;;;;;;22.27;6.05;;;5.50;99.90;;;;;;4975393;28;20447;-68
2023/01/14 07:34:05;;;;;;;19.02;5.35;;;5.50;99.90;;;;;;4992554;28;20432;-68
2023/01/14 07:36:32;;;;;;;24.35;6.18;;;5.50;99.90;;;;;;4974231;28;20418;-68
2023/01/14 07:38:59;;;;;;;31.95;6.75;;;5.60;99.90;;;;;;4975886;28;20038;-68
2023/01/14 07:41:27;;;;;;;25.52;6.70;;;5.60;99.90;;;;;;4972293;28;20050;-68
2023/01/14 07:43:54;;;;;;;25.50;6.78;;;5.60;99.90;;;;;;4988984;28;20050;-67
2023/01/14 07:46:21;;;;;;;19.55;5.55;;;5.60;99.90;;;;;;4975829;28;20054;-68
2023/01/14 07:48:48;;;;;;;23.27;6.10;;;5.60;99.90;;;;;;4992240;28;20525;-69
2023/01/14 07:51:20;;;;;;;27.25;6.25;;;5.70;99.90;;;;;;4992290;28;20042;-68
2023/01/14 07:53:47;;;;;;;25.90;6.60;;;5.70;99.90;;;;;;4975480;28;20055;-68
2023/01/14 07:56:14;;;;;;;20.52;5.90;;;5.70;99.90;;;;;;4973038;28;20391;-68
2023/01/14 07:58:43;;;;;;;25.13;6.18;;;5.80;99.90;;;;;;4988798;28;20062;-68
2023/01/14 08:01:11;;;;;;;24.58;5.60;;;5.80;99.90;;;;;;4970836;28;20050;-68
2023/01/14 08:03:38;;;;;;;22.98;7.35;;;5.80;99.90;;;;;;4989902;28;20462;-68
2023/01/14 08:06:06;;;;;;;28.30;7.35;;;5.80;99.90;;;;;;4989996;28;20054;-68
2023/01/14 08:08:34;;;;;;;17.50;6.20;;;5.90;99.90;;;;;;4990340;28;20055;-68
2023/01/14 08:11:01;;;;;;;30.40;6.72;;;5.90;99.90;;;;;;4974420;28;20584;-69
2023/01/14 08:13:30;;;;;;;25.63;7.05;;;5.90;99.90;;;;;;4987957;28;20457;-68
2023/01/14 08:15:59;;;;;;;20.33;6.07;;;5.90;99.90;;;;;;4990490;28;20498;-68
2023/01/14 08:18:26;;;;;;;22.85;6.60;;;5.90;99.90;;;;;;4973733;28;20058;-70
2023/01/14 08:20:57;;;;;;;28.45;5.88;;;5.90;99.90;;;;;;4990538;28;20145;-69
2023/01/14 08:23:24;;;;;;;;;;;5.90;99.90;;;;;;4990022;28;20066;-69
2023/01/14 08:25:51;;;;;;;19.20;6.07;;;5.90;99.90;;;;;;4973774;28;19923;-69
2023/01/14 08:28:18;;;;;;;27.20;6.72;;;5.90;99.90;;;;;;4973968;28;20582;-68
2023/01/14 08:30:45;;;;;;;21.60;6.40;;;6.00;99.90;;;;;;4990369;28;20092;-68
2023/01/14 08:33:13;;;;;;;24.98;6.07;;;6.00;99.90;;;;;;4975638;28;20058;-68
2023/01/14 08:35:40;;;;;;;17.30;5.53;;;5.90;99.90;;;;;;4967303;28;20054;-67
2023/01/14 08:38:07;;;;;;;23.55;5.63;;;5.90;99.90;;;;;;4978012;28;20047;-68
2023/01/14 08:40:35;;;;;;;28.50;6.88;;;5.90;99.90;;;;;;4973394;28;20522;-71
2023/01/14 08:43:01;;;;;;;22.88;6.18;;;5.80;99.90;;;;;;4974782;28;20058;-68
2023/01/14 08:45:28;;;;;;;20.02;6.55;;;5.80;99.90;;;;;;4974071;28;20142;-68
2023/01/14 08:47:55;;;;;;;23.02;7.82;;;5.80;99.90;;;;;;4986294;28;20434;-68
2023/01/14 08:50:23;;;;;;;25.73;6.45;;;5.80;99.90;;;;;;4973287;28;20408;-68
2023/01/14 08:52:50;;;;;;;23.55;6.47;;;5.80;99.90;;;;;;4985605;28;20055;-68
2023/01/14 08:55:17;;;;;;;17.67;5.00;;;5.70;99.90;;;;;;4974625;28;20046;-69
2023/01/14 08:57:44;;;;;;;29.13;5.95;;;5.80;99.90;;;;;;4974330;28;20058;-69
2023/01/14 09:00:12;;;;;;;23.10;6.35;;;5.70;99.90;;;;;;4978264;28;20055;-68
2023/01/14 09:02:39;;;;;;;23.60;5.28;;;5.70;99.90;;;;;;4973835;28;20129;-69
2023/01/14 09:05:06;;;;;;;23.45;5.60;;;5.70;99.90;;;;;;4967569;28;20046;-69
2023/01/14 09:18:41;;;;;;;19.65;5.60;;;5.70;99.90;;;;;;4973941;28;20050;-69
2023/01/14 09:21:09;;;;;;;18.55;5.25;;;5.90;99.90;;;;;;4969135;28;20446;-69
2023/01/14 09:23:37;;;;;;;14.65;4.25;;;5.70;99.90;;;;;;4978704;28;20061;-69
2023/01/14 09:26:04;;;;;;;24.00;4.75;;;5.70;99.90;;;;;;4973813;28;20085;-69
2023/01/14 09:28:31;;;;;;;22.60;4.80;;;5.70;99.90;;;;;;4978176;28;20054;-68
2023/01/14 09:30:58;;;;;;;12.35;4.28;;;5.70;99.90;;;;;;4978232;28;20054;-69
2023/01/14 09:33:25;;;;;;;22.08;5.05;;;5.70;99.90;;;;;;4967099;28;20482;-70
2023/01/14 09:35:51;;;;;;;20.52;5.72;;;5.70;99.90;;;;;;4984195;28;20053;-69
2023/01/14 09:38:18;;;;;;;23.98;6.03;;;5.70;99.90;;;;;;4966660;28;20132;-70
2023/01/14 09:40:46;;;;;;;15.55;4.55;;;5.70;99.90;;;;;;4967113;28;20050;-69
2023/01/14 09:43:17;;;;;;;20.65;4.78;;;5.70;99.90;;;;;;4971176;28;20696;-69
2023/01/14 09:45:45;;;;;;;15.00;4.78;;;5.70;99.90;;;;;;4970048;28;20149;-69
2023/01/14 09:48:15;;;;;;;22.40;5.38;;;5.70;99.90;;;;;;4966436;28;20148;-70
2023/01/14 09:50:53;;;;;;;17.00;4.82;;;5.70;99.90;;;;;;4971831;28;20051;-69
2023/01/14 09:53:38;;;;;;;16.73;5.07;;;5.70;99.90;;;;;;4967279;28;20097;-69
2023/01/14 09:56:13;;;;;;;15.00;4.47;;;5.70;99.90;;;;;;4977212;28;20050;-70
2023/01/14 09:58:50;;;;;;;21.25;4.72;;;5.70;99.90;;;;;;4974866;28;20074;-70
2023/01/14 10:01:25;;;;;;;17.77;4.35;;;5.70;99.90;;;;;;4972702;28;20054;-70
2023/01/14 10:03:59;;;;;;;14.48;3.95;;;5.70;99.90;;;;;;4974264;28;20112;-71
2023/01/14 10:06:26;;;;;;;18.25;4.15;;;5.70;99.90;;;;;;4973598;28;20500;-69
2023/01/14 10:08:58;;;;;;;15.40;4.38;;;5.80;99.90;;;;;;4972983;28;20105;-70
2023/01/14 10:11:32;;;;;;;10.07;3.53;;;5.80;99.90;;;;;;4990278;28;20096;-71
2023/01/14 10:14:05;;;;;;;12.18;4.03;;;5.80;99.90;;;;;;4969998;28;20093;-70
2023/01/14 10:16:35;;;;;;;8.13;3.70;;;5.80;99.90;;;;;;4969583;28;20116;-70
2023/01/14 10:19:08;;;;;;;13.07;3.50;;;5.80;99.90;;;;;;4972006;28;20105;-71
2023/01/14 10:21:42;;;;;;;10.57;3.30;;;5.80;99.90;;;;;;4969100;28;20050;-71
2023/01/14 10:24:13;;;;;;;16.77;3.70;;;5.90;99.90;;;;;;4971305;28;20462;-71
2023/01/14 10:26:44;;;;;;;6.35;2.80;;;5.90;99.90;;;;;;4973757;28;20054;-71
2023/01/14 10:29:15;;;;;;;9.65;2.78;;;6.00;99.90;;;;;;4974855;28;20050;-71
2023/01/14 10:31:46;;;;;;;7.93;3.03;;;6.00;99.90;;;;;;4992009;28;20050;-71
2023/01/14 10:34:17;;;;;;;8.10;2.80;;;6.00;99.90;;;;;;4992018;28;20054;-70
2023/01/14 10:36:44;;;;;;;7.82;3.22;;;6.10;99.90;;;;;;4991381;28;20065;-69
2023/01/14 10:39:13;;;;;;;6.13;2.40;;;6.10;99.90;;;;;;4972597;28;20055;-70
2023/01/14 10:41:50;;;;;;;6.10;2.20;;;6.10;99.90;;;;;;4973519;28;20466;-70
2023/01/14 10:44:22;;;;;;;5.38;2.40;;;6.20;99.90;;;;;;4973453;28;20110;-70
2023/01/14 10:46:50;;;;;;;9.27;2.33;;;6.30;99.90;;;;;;4956297;28;20101;-70
2023/01/14 10:49:20;;;;;;;7.53;2.33;;;6.20;99.90;;;;;;4973592;28;20110;-70
2023/01/14 10:51:50;;;;;;;;;;;6.30;99.90;;;;;;4973422;28;20055;-70
2023/01/14 10:54:19;;;;;;;8.43;2.40;;;6.40;99.90;;;;;;4991912;28;19976;-70
2023/01/14 10:56:53;;;;;;;4.05;2.20;;;6.40;99.90;;;;;;4991535;28;20054;-71
2023/01/14 10:59:40;;;;;;;11.70;3.22;;;6.40;99.90;;;;;;4991431;28;20074;-70
2023/01/14 11:02:21;;;;;;;13.38;2.20;;;6.40;99.90;;;;;;4973427;28;20078;-70
2023/01/14 11:04:48;;;;;;;;;;;6.50;99.90;;;;;;4956290;28;20113;-70
2023/01/14 11:07:22;;;;;;;6.32;2.50;;;6.50;99.90;;;;;;4973312;28;20434;-70
2023/01/14 11:09:49;;;;;;;6.18;2.53;;;6.60;99.90;;;;;;4973645;28;20039;-70
2023/01/14 11:12:28;;;;;;;5.88;2.75;;;6.60;99.90;;;;;;4972984;28;20054;-71
2023/01/14 11:14:55;;;;;;;3.88;2.00;;;6.60;99.90;;;;;;4969197;28;20455;-70
2023/01/14 11:17:25;;;;;;;7.70;2.50;;;6.60;99.90;;;;;;4971329;28;20046;-71
2023/01/14 11:19:52;;;;;;;5.00;2.13;;;6.60;99.90;;;;;;4971075;28;20483;-70
2023/01/14 11:22:19;;;;;;;4.07;2.28;;;6.60;99.90;;;;;;4971480;28;20050;-70
2023/01/14 11:24:52;;;;;;;7.82;2.17;;;6.60;99.90;;;;;;4969302;28;20065;-70
2023/01/14 11:27:21;;;;;;;6.13;2.20;;;6.60;99.90;;;;;;4979856;28;20062;-71
2023/01/14 11:29:53;;;;;;;7.10;2.25;;;6.60;99.90;;;;;;4988261;28;20128;-70
2023/01/14 11:32:24;;;;;;;3.70;1.95;;;6.60;99.90;;;;;;4972680;28;20050;-70
2023/01/14 11:34:53;;;;;;;5.95;2.10;;;6.60;99.90;;;;;;4981077;28;20069;-71
2023/01/14 11:37:23;;;;;;;4.18;2.22;;;6.60;99.90;;;;;;4980693;28;20100;-70
2023/01/14 11:39:52;;;;;;;5.53;2.20;;;6.60;99.90;;;;;;4974507;28;20050;-70
2023/01/14 11:42:29;;;;;;;5.47;2.42;;;6.60;99.90;;;;;;4972306;28;20148;-70
2023/01/14 11:44:59;;;;;;;4.22;2.50;;;6.60;99.90;;;;;;4976323;28;20498;-70
2023/01/14 11:47:27;;;;;;;3.40;1.70;;;6.60;99.90;;;;;;4973028;28;20441;-70
2023/01/14 11:50:10;;;;;;;4.78;2.50;;;6.70;99.90;;;;;;4976257;28;20042;-70
2023/01/14 11:52:37;;;;;;;3.90;2.00;;;6.60;99.90;;;;;;4974494;28;20050;-71
2023/01/14 11:55:04;;;;;;;4.97;2.20;;;6.60;99.90;;;;;;4979931;28;20043;-70
2023/01/14 11:57:31;;;;;;;6.22;2.00;;;6.60;99.90;;;;;;4976272;28;20063;-71
2023/01/14 11:59:59;;;;;;;3.28;1.80;;;6.60;99.90;;;;;;4973501;28;20096;-71
2023/01/14 12:02:29;;;;;;;9.48;2.80;;;6.60;99.90;;;;;;4967774;28;20058;-69
2023/01/14 12:05:01;;;;;;;5.32;2.05;;;6.70;99.90;;;;;;4985268;28;20112;-69
2023/01/14 12:07:33;;;;;;;4.22;1.90;;;6.70;99.90;;;;;;4984932;28;20778;-69
2023/01/14 12:10:05;;;;;;;5.85;2.58;;;6.70;99.90;;;;;;4988629;28;20047;-70
2023/01/14 12:16:48;;;;;;;5.30;1.95;;;6.70;99.90;;;;;;4972765;28;20070;-69
2023/01/14 12:18:28;;;;;;;;;;;6.70;99.90;;;;;;4985172;28;20053;-71
2023/01/14 12:20:56;;;;;;;3.83;2.13;;;6.70;99.90;;;;;;4987180;28;19929;-71
2023/01/14 12:23:28;;;;;;;4.72;1.95;;;6.70;99.90;;;;;;4986760;28;20062;-69
2023/01/14 12:25:55;;;;;;;4.07;2.03;;;6.80;99.90;;;;;;4985270;28;20046;-69
2023/01/14 12:28:30;;;;;;;3.35;1.83;;;6.80;99.90;;;;;;4988649;28;20050;-69
2023/01/14 12:31:02;;;;;;;3.17;1.90;;;6.90;99.90;;;;;;4984853;28;20092;-69
2023/01/14 12:33:38;;;;;;;7.07;1.80;;;6.90;99.90;;;;;;4970485;28;20112;-68
2023/01/14 12:36:14;;;;;;;4.43;1.83;;;6.90;99.90;;;;;;4985828;28;20055;-71
2023/01/14 12:47:20;;;;;;;3.33;1.90;;;7.00;99.90;;;;;;4986321;28;20050;-71
2023/01/14 12:49:47;;;;;;;3.88;1.65;;;7.10;99.90;;;;;;4971605;28;20054;-71
2023/01/14 12:52:25;;;;;;;2.90;1.92;;;7.20;99.90;;;;;;4968152;28;20117;-71
2023/01/14 12:54:53;;;;;;;4.50;1.92;;;7.00;99.90;;;;;;4973752;28;20050;-70
2023/01/14 12:57:23;;;;;;;5.07;2.55;;;7.20;99.90;;;;;;4988873;28;20057;-71
2023/01/14 12:59:55;;;;;;;3.45;1.70;;;7.30;99.90;;;;;;4975121;28;20046;-70
2023/01/14 13:02:31;;;;;;;4.00;1.65;;;7.40;99.90;;;;;;4987866;28;20129;-70
2023/01/14 13:05:04;;;;;;;5.90;1.77;;;7.20;99.90;;;;;;4989638;28;20073;-71
2023/01/14 13:07:34;;;;;;;3.97;1.60;;;7.20;99.90;;;;;;4973030;28;20046;-71
2023/01/14 13:10:04;;;;;;;2.70;1.75;;;7.40;99.90;;;;;;4975297;28;20046;-70
2023/01/14 13:12:34;;;;;;;4.63;1.70;;;7.40;99.90;;;;;;4985133;28;20573;-72
2023/01/14 13:15:05;;;;;;;2.53;1.63;;;7.40;99.90;;;;;;4991573;28;20141;-72
2023/01/14 13:17:36;;;;;;;3.75;1.55;;;7.50;99.90;;;;;;4987150;28;20104;-70
2023/01/14 13:20:06;;;;;;;5.03;1.50;;;7.50;99.90;;;;;;4972437;28;20473;-71
2023/01/14 13:22:45;;;;;;;1.83;1.40;;;7.50;99.90;;;;;;4985202;28;20077;-70
2023/01/14 13:25:37;;;;;;;3.65;1.55;;;7.60;99.90;;;;;;4968527;28;20137;-70
2023/01/14 13:28:32;;;;;;;10.55;1.90;;;7.70;99.90;;;;;;4950861;28;20499;-71
2023/01/14 13:31:32;;;;;;;5.15;1.73;;;7.80;99.90;;;;;;4970065;28;20047;-70
2023/01/14 13:34:39;;;;;;;3.17;1.58;;;7.90;99.90;;;;;;4954561;28;20501;-71
2023/01/14 13:37:26;;;;;;;2.70;1.83;;;8.00;99.90;;;;;;4971400;28;20173;-71
2023/01/14 13:39:56;;;;;;;3.88;1.55;;;8.10;99.90;;;;;;4970694;28;20110;-73
2023/01/14 13:42:30;;;;;;;4.72;1.52;;;8.10;99.90;;;;;;4972468;28;20141;-72
2023/01/14 13:44:59;;;;;;;2.70;1.38;;;8.20;99.90;;;;;;4955089;28;20168;-73
2023/01/14 13:47:31;;;;;;;3.10;1.60;;;8.00;99.90;;;;;;4951248;28;20118;-71